Time;durP1;ratioP1;P1;durP2;ratioP2;P2;SDS_P1;SDS_P2;PMS_P1;PMS_P2;Temp;Humidity;BMP_temperature;BMP_pressure;BME280_temperature;BME280_humidity;BME280_pressure;Samples;Min_cycle;Max_cycle;Signal;HPM_P1;HPM_P2
2023/01/07 00:01:07;;;;;;;33.77;30.97;;;;;;;5.75;100.00;101468.06;5002711;28;20445;-50
2023/01/07 00:03:35;;;;;;;33.40;31.00;;;;;;;5.76;100.00;101475.03;5006006;28;20415;-50
2023/01/07 00:06:06;;;;;;;34.57;31.77;;;;;;;5.75;100.00;101466.25;5005418;28;20548;-46
2023/01/07 00:08:35;;;;;;;34.20;31.90;;;;;;;5.76;100.00;101453.88;5005979;28;20461;-46
2023/01/07 00:11:04;;;;;;;32.23;30.40;;;;;;;5.76;100.00;101454.72;5005364;28;20459;-45
2023/01/07 00:13:31;;;;;;;33.40;31.00;;;;;;;5.78;100.00;101452.75;5005618;28;20449;-46
2023/01/07 00:16:00;;;;;;;33.40;31.40;;;;;;;5.77;100.00;101451.06;5005669;28;20573;-47
2023/01/07 00:18:29;;;;;;;34.83;32.43;;;;;;;5.79;100.00;101450.94;5005588;28;20469;-46
2023/01/07 00:20:57;;;;;;;33.80;31.30;;;;;;;5.80;100.00;101457.88;5006060;28;20434;-46
2023/01/07 00:23:26;;;;;;;34.50;31.97;;;;;;;5.81;100.00;101460.38;5004727;28;20505;-49
2023/01/07 00:26:00;;;;;;;33.07;30.77;;;;;;;5.82;100.00;101458.56;5004653;28;20462;-45
2023/01/07 00:28:28;;;;;;;34.43;31.97;;;;;;;5.82;100.00;101461.22;5005370;28;20489;-49
2023/01/07 00:30:59;;;;;;;34.47;31.67;;;;;;;5.83;100.00;101460.22;5005304;28;20438;-50
2023/01/07 00:33:28;;;;;;;34.03;31.67;;;;;;;5.82;100.00;101454.13;5005814;28;20418;-49
2023/01/07 00:36:00;;;;;;;34.17;31.63;;;;;;;5.82;100.00;101446.19;5004190;28;20486;-46
2023/01/07 00:38:28;;;;;;;35.60;32.73;;;;;;;5.84;100.00;101435.44;5004927;28;20488;-46
2023/01/07 00:40:56;;;;;;;34.70;32.10;;;;;;;5.82;100.00;101438.22;5005100;28;20426;-47
2023/01/07 00:43:24;;;;;;;34.93;32.53;;;;;;;5.85;100.00;101434.44;5005410;28;20497;-47
2023/01/07 00:45:51;;;;;;;35.30;32.80;;;;;;;5.84;100.00;101428.31;5004220;28;20461;-46
2023/01/07 00:48:20;;;;;;;34.37;31.67;;;;;;;5.84;100.00;101430.13;5005640;28;20448;-51
2023/01/07 00:50:49;;;;;;;34.57;32.37;;;;;;;5.83;100.00;101426.66;5006259;28;20947;-51
2023/01/07 00:53:18;;;;;;;35.67;33.23;;;;;;;5.83;100.00;101424.00;5005286;28;20434;-46
2023/01/07 00:55:47;;;;;;;35.50;32.77;;;;;;;5.84;100.00;101427.47;5004801;28;20468;-49
2023/01/07 00:58:17;;;;;;;35.23;32.47;;;;;;;5.86;100.00;101414.94;5005624;28;20478;-46
2023/01/07 01:00:45;;;;;;;34.20;31.37;;;;;;;5.87;100.00;101422.75;5005404;28;20457;-52
2023/01/07 01:03:13;;;;;;;35.60;32.80;;;;;;;5.88;100.00;101420.94;5005028;28;20434;-49
2023/01/07 01:05:40;;;;;;;36.07;33.33;;;;;;;5.89;100.00;101407.56;5004858;28;20466;-51
2023/01/07 01:08:09;;;;;;;34.73;32.33;;;;;;;5.91;100.00;101412.72;5005306;28;20438;-50
2023/01/07 01:10:38;;;;;;;35.50;32.67;;;;;;;5.89;100.00;101404.06;5005486;28;20466;-51
2023/01/07 01:13:06;;;;;;;34.80;32.60;;;;;;;5.90;100.00;101411.03;5004599;28;20533;-49
2023/01/07 01:15:33;;;;;;;35.87;33.13;;;;;;;5.89;100.00;101418.16;5004271;28;21005;-50
2023/01/07 01:18:01;;;;;;;35.50;33.17;;;;;;;5.88;100.00;101419.16;5004542;28;20438;-46
2023/01/07 01:20:28;;;;;;;34.47;32.03;;;;;;;5.87;100.00;101419.28;5004166;28;20453;-46
2023/01/07 01:22:57;;;;;;;36.43;33.00;;;;;;;5.86;100.00;101423.72;5004177;28;20466;-48
2023/01/07 01:25:25;;;;;;;35.40;32.43;;;;;;;5.84;100.00;101423.03;5004161;28;20828;-48
2023/01/07 01:27:54;;;;;;;36.47;33.73;;;;;;;5.86;100.00;101421.09;5004369;28;20970;-47
2023/01/07 01:30:21;;;;;;;36.93;34.30;;;;;;;5.84;100.00;101412.44;5004510;28;20456;-48
2023/01/07 01:32:49;;;;;;;36.90;34.20;;;;;;;5.85;100.00;101414.16;5003963;28;20438;-50
2023/01/07 01:35:17;;;;;;;37.43;34.53;;;;;;;5.85;100.00;101410.63;5003657;28;20458;-46
2023/01/07 01:37:44;;;;;;;36.73;34.17;;;;;;;5.87;100.00;101412.19;5014295;28;20440;-50
2023/01/07 01:40:12;;;;;;;38.30;35.27;;;;;;;5.88;100.00;101416.50;5023198;28;20485;-50
2023/01/07 01:42:40;;;;;;;37.40;34.90;;;;;;;5.87;100.00;101398.94;5023952;28;20428;-46
2023/01/07 01:45:11;;;;;;;37.33;34.50;;;;;;;5.88;100.00;101408.56;5022935;28;20884;-48
2023/01/07 01:47:44;;;;;;;39.23;36.03;;;;;;;5.89;100.00;101404.06;5023748;28;20460;-45
2023/01/07 01:50:17;;;;;;;37.63;34.83;;;;;;;5.89;100.00;101412.84;5023543;28;20449;-47
2023/01/07 01:52:49;;;;;;;38.20;35.20;;;;;;;5.89;100.00;101402.25;5023762;28;20413;-48
2023/01/07 01:55:21;;;;;;;40.00;36.50;;;;;;;5.90;100.00;101408.38;5023093;28;20487;-47
2023/01/07 01:57:55;;;;;;;38.73;35.90;;;;;;;5.90;100.00;101403.09;5022971;28;20405;-50
2023/01/07 02:00:24;;;;;;;37.73;34.83;;;;;;;5.90;100.00;101398.63;5022783;28;20477;-49
2023/01/07 02:02:55;;;;;;;38.80;35.40;;;;;;;5.90;100.00;101396.00;5022963;28;20436;-46
2023/01/07 02:05:25;;;;;;;37.77;34.90;;;;;;;5.92;100.00;101390.53;5022782;28;20463;-47
2023/01/07 02:07:52;;;;;;;37.67;34.40;;;;;;;5.92;100.00;101388.72;5022745;28;20437;-46
2023/01/07 02:10:22;;;;;;;40.00;36.80;;;;;;;5.92;100.00;101387.88;5023678;28;20460;-47
2023/01/07 02:13:03;;;;;;;39.97;36.80;;;;;;;5.90;100.00;101392.50;5023001;28;20471;-47
2023/01/07 02:15:39;;;;;;;39.60;36.27;;;;;;;5.92;100.00;101395.81;5021923;28;20453;-47
2023/01/07 02:18:23;;;;;;;39.43;36.10;;;;;;;5.90;100.00;101393.34;5022600;28;20439;-50
2023/01/07 02:21:10;;;;;;;38.20;35.20;;;;;;;5.90;100.00;101392.50;5022779;28;20476;-49
2023/01/07 02:24:11;;;;;;;38.87;35.93;;;;;;;5.86;100.00;101386.69;5023455;28;20440;-51
2023/01/07 02:27:09;;;;;;;37.80;34.90;;;;;;;5.87;100.00;101388.34;5023047;28;20483;-50
2023/01/07 02:30:25;;;;;;;40.03;36.33;;;;;;;5.84;100.00;101385.97;5022853;28;20578;-46
2023/01/07 02:33:26;;;;;;;39.20;35.90;;;;;;;5.80;100.00;101387.25;5022845;28;20426;-45
2023/01/07 02:36:19;;;;;;;40.40;36.97;;;;;;;5.78;100.00;101373.34;5022178;28;20460;-46
2023/01/07 02:38:59;;;;;;;38.77;35.77;;;;;;;5.78;100.00;101365.41;5022189;28;20452;-49
2023/01/07 02:41:39;;;;;;;41.40;37.87;;;;;;;5.76;100.00;101359.44;5022768;28;20432;-48
2023/01/07 02:44:15;;;;;;;38.37;35.37;;;;;;;5.76;100.00;101343.56;5022638;28;20428;-46
2023/01/07 02:46:50;;;;;;;38.40;35.20;;;;;;;5.76;100.00;101340.91;5022560;28;20523;-49
2023/01/07 02:49:20;;;;;;;38.73;35.13;;;;;;;5.76;100.00;101337.44;5022748;28;20460;-47
2023/01/07 02:51:47;;;;;;;38.87;35.43;;;;;;;5.74;100.00;101339.38;5022919;28;20442;-48
2023/01/07 02:54:20;;;;;;;38.30;35.60;;;;;;;5.71;100.00;101337.88;5022259;28;20433;-49
2023/01/07 02:57:13;;;;;;;38.47;35.50;;;;;;;5.70;100.00;101336.22;5022667;28;20493;-51
2023/01/07 03:00:01;;;;;;;38.13;34.77;;;;;;;5.72;100.00;101330.75;5022473;28;20520;-48
2023/01/07 03:02:45;;;;;;;38.77;35.30;;;;;;;5.73;100.00;101337.72;5022188;28;20494;-47
2023/01/07 03:05:27;;;;;;;39.10;36.10;;;;;;;5.74;100.00;101326.97;5022347;28;20465;-49
2023/01/07 03:08:07;;;;;;;40.60;37.30;;;;;;;5.78;100.00;101319.56;5023185;28;20409;-52
2023/01/07 03:10:40;;;;;;;39.80;36.20;;;;;;;5.81;100.00;101312.16;5022323;28;20429;-46
2023/01/07 03:13:15;;;;;;;38.77;35.87;;;;;;;5.83;100.00;101307.53;5023067;28;20429;-46
2023/01/07 03:15:48;;;;;;;42.17;38.20;;;;;;;5.83;100.00;101307.53;5022295;28;20464;-46
2023/01/07 03:18:19;;;;;;;43.00;38.90;;;;;;;5.84;100.00;101314.50;5022856;28;20425;-48
2023/01/07 03:20:53;;;;;;;42.23;38.17;;;;;;;5.88;100.00;101309.78;5022898;28;20472;-49
2023/01/07 03:23:25;;;;;;;40.27;37.13;;;;;;;5.91;100.00;101304.19;5023663;28;20441;-51
2023/01/07 03:25:55;;;;;;;42.17;38.87;;;;;;;5.94;100.00;101302.03;5022736;28;20469;-53
2023/01/07 03:28:28;;;;;;;39.93;36.93;;;;;;;5.97;100.00;101308.88;5024315;28;20440;-50
2023/01/07 03:30:58;;;;;;;40.03;37.13;;;;;;;6.01;100.00;101307.56;5024198;28;20429;-52
2023/01/07 03:33:31;;;;;;;39.23;36.20;;;;;;;6.03;100.00;101309.06;5022305;28;20425;-48
2023/01/07 03:36:01;;;;;;;41.63;38.03;;;;;;;6.05;100.00;101309.75;5023357;28;20449;-51
2023/01/07 03:38:30;;;;;;;42.43;38.67;;;;;;;6.09;100.00;101308.44;5027939;28;20456;-49
2023/01/07 03:40:58;;;;;;;42.47;38.23;;;;;;;6.13;100.00;101312.47;5008993;28;20473;-49
2023/01/07 03:43:24;;;;;;;41.90;38.67;;;;;;;6.17;100.00;101306.84;5007312;28;20426;-51
2023/01/07 03:45:54;;;;;;;41.07;37.70;;;;;;;6.21;100.00;101311.72;5007797;28;20465;-53
2023/01/07 03:48:21;;;;;;;42.70;38.60;;;;;;;6.25;100.00;101299.78;5007153;28;20445;-50
2023/01/07 03:50:49;;;;;;;44.20;40.23;;;;;;;6.30;100.00;101302.81;5006160;28;20800;-48
2023/01/07 03:53:18;;;;;;;42.80;39.20;;;;;;;6.36;100.00;101302.19;5005784;28;20456;-47
2023/01/07 03:55:46;;;;;;;43.20;39.60;;;;;;;6.38;100.00;101294.09;5005611;28;20471;-46
2023/01/07 03:58:14;;;;;;;43.67;40.37;;;;;;;6.41;100.00;101291.97;5005759;28;20434;-49
2023/01/07 04:00:41;;;;;;;45.37;41.50;;;;;;;6.45;100.00;101288.00;5005394;28;20484;-50
2023/01/07 04:03:10;;;;;;;46.60;42.60;;;;;;;6.47;100.00;101272.81;5005831;28;20463;-46
2023/01/07 04:05:37;;;;;;;45.93;42.17;;;;;;;6.53;100.00;101276.63;5005121;28;20471;-50
2023/01/07 04:08:05;;;;;;;44.33;40.27;;;;;;;6.56;100.00;101274.50;5005156;28;20516;-48
2023/01/07 04:10:34;;;;;;;50.87;45.00;;;;;;;6.59;100.00;101276.00;5004727;28;20462;-45
2023/01/07 04:13:02;;;;;;;50.20;46.00;;;;;;;6.62;100.00;101267.75;5005480;28;20436;-48
2023/01/07 04:15:30;;;;;;;49.67;45.00;;;;;;;6.64;100.00;101263.94;5004974;28;20472;-46
2023/01/07 04:17:57;;;;;;;51.30;46.20;;;;;;;6.66;100.00;101266.41;5006100;28;20482;-47
2023/01/07 04:20:25;;;;;;;52.73;47.30;;;;;;;6.69;100.00;101271.41;5005376;28;20498;-46
2023/01/07 04:22:53;;;;;;;52.30;47.47;;;;;;;6.73;100.00;101266.63;5005430;28;20831;-45
2023/01/07 04:25:20;;;;;;;51.07;46.40;;;;;;;6.77;100.00;101262.69;5005021;28;20458;-50
2023/01/07 04:27:49;;;;;;;53.50;48.10;;;;;;;6.81;100.00;101256.88;5005386;28;20932;-47
2023/01/07 04:30:17;;;;;;;54.20;48.87;;;;;;;6.84;100.00;101256.56;5005060;28;20979;-51
2023/01/07 04:32:44;;;;;;;56.97;51.00;;;;;;;6.87;100.00;101256.25;5005680;28;20426;-48
2023/01/07 04:35:12;;;;;;;53.53;48.47;;;;;;;6.91;100.00;101251.47;5004259;28;20460;-46
2023/01/07 04:37:40;;;;;;;56.33;50.73;;;;;;;6.92;100.00;101258.44;5005197;28;20528;-50
2023/01/07 04:40:09;;;;;;;57.43;51.47;;;;;;;6.94;100.00;101257.28;5012908;28;20833;-46
2023/01/07 04:42:36;;;;;;;60.93;53.40;;;;;;;6.96;100.00;101252.63;5004442;28;20816;-46
2023/01/07 04:45:06;;;;;;;60.50;54.33;;;;;;;6.98;100.00;101247.19;5004403;28;20458;-46
2023/01/07 04:47:34;;;;;;;53.83;48.80;;;;;;;7.01;100.00;101244.22;5003212;28;20449;-49
2023/01/07 04:50:02;;;;;;;57.63;51.63;;;;;;;7.04;100.00;101244.72;5004629;28;20951;-45
2023/01/07 04:52:29;;;;;;;59.40;53.17;;;;;;;7.05;100.00;101243.72;5004618;28;20434;-51
2023/01/07 04:54:57;;;;;;;58.63;52.93;;;;;;;7.09;100.00;101237.09;5004226;28;20462;-52
2023/01/07 04:57:25;;;;;;;59.60;53.50;;;;;;;7.10;100.00;101233.47;5004504;28;20524;-46
2023/01/07 04:59:52;;;;;;;60.83;52.87;;;;;;;7.14;100.00;101236.59;5004442;28;20462;-51
2023/01/07 05:02:21;;;;;;;58.43;52.90;;;;;;;7.15;100.00;101235.63;5004118;28;20477;-47
2023/01/07 05:04:49;;;;;;;62.73;55.60;;;;;;;7.19;100.00;101234.31;5004164;28;20454;-48
2023/01/07 05:07:17;;;;;;;62.97;55.10;;;;;;;7.21;100.00;101224.34;5004525;28;20434;-50
2023/01/07 05:09:44;;;;;;;63.00;51.70;;;;;;;7.26;100.00;101234.50;5005020;28;20553;-48
2023/01/07 05:12:12;;;;;;;65.40;55.03;;;;;;;7.27;100.00;101223.72;5004570;28;20444;-48
2023/01/07 05:14:40;;;;;;;60.20;52.23;;;;;;;7.29;100.00;101218.25;5004145;28;20454;-47
2023/01/07 05:17:07;;;;;;;62.10;55.33;;;;;;;7.33;100.00;101225.72;5004155;28;20437;-47
2023/01/07 05:19:36;;;;;;;69.33;54.13;;;;;;;7.36;100.00;101221.91;5004682;28;20458;-46
2023/01/07 05:22:05;;;;;;;65.97;54.37;;;;;;;7.39;100.00;101224.22;5004865;28;20470;-49
2023/01/07 05:24:32;;;;;;;66.13;53.37;;;;;;;7.41;100.00;101227.53;5004018;28;20433;-45
2023/01/07 05:27:00;;;;;;;61.73;52.57;;;;;;;7.43;100.00;101215.78;5004653;28;20446;-48
2023/01/07 05:29:28;;;;;;;65.57;52.73;;;;;;;7.46;100.00;101215.44;5005005;28;20465;-46
2023/01/07 05:31:56;;;;;;;70.97;54.30;;;;;;;7.47;100.00;101214.44;5004671;28;20426;-49
2023/01/07 05:34:24;;;;;;;71.57;54.13;;;;;;;7.50;100.00;101213.28;5003558;28;20438;-46
2023/01/07 05:36:53;;;;;;;61.73;52.30;;;;;;;7.53;100.00;101218.25;5004389;28;20433;-45
2023/01/07 05:39:21;;;;;;;77.60;54.97;;;;;;;7.53;100.00;101213.78;5008889;28;20459;-45
2023/01/07 05:41:49;;;;;;;79.43;55.67;;;;;;;7.53;100.00;101210.28;5024199;28;20473;-47
2023/01/07 05:44:16;;;;;;;73.70;55.73;;;;;;;7.53;100.00;101211.13;5023450;28;20456;-46
2023/01/07 05:46:44;;;;;;;83.90;56.37;;;;;;;7.53;100.00;101208.47;5023436;28;20930;-51
2023/01/07 05:49:12;;;;;;;63.80;52.27;;;;;;;7.54;100.00;101209.31;5023781;28;20465;-47
2023/01/07 05:51:39;;;;;;;60.07;50.13;;;;;;;7.55;100.00;101210.97;5024484;28;20437;-46
2023/01/07 05:54:09;;;;;;;58.33;49.83;;;;;;;7.57;100.00;101211.63;5023695;28;20429;-52
2023/01/07 05:56:36;;;;;;;63.53;49.00;;;;;;;7.60;100.00;101206.81;5023731;28;20564;-48
2023/01/07 05:59:04;;;;;;;56.00;50.10;;;;;;;7.60;100.00;101211.28;5023661;28;20540;-49
2023/01/07 06:01:32;;;;;;;61.73;49.43;;;;;;;7.65;100.00;101209.81;5024335;28;20532;-51
2023/01/07 06:03:59;;;;;;;58.67;47.63;;;;;;;7.68;100.00;101203.31;5024592;28;20501;-44
2023/01/07 06:06:27;;;;;;;54.70;46.43;;;;;;;7.71;100.00;101214.44;5023585;28;20465;-48
2023/01/07 06:08:55;;;;;;;61.17;46.47;;;;;;;7.73;100.00;101201.03;5024025;28;20453;-49
2023/01/07 06:11:24;;;;;;;67.40;48.83;;;;;;;7.77;100.00;101203.16;5023922;28;20429;-50
2023/01/07 06:13:51;;;;;;;50.43;44.90;;;;;;;7.82;100.00;101202.69;5024005;28;20953;-45
2023/01/07 06:16:19;;;;;;;55.13;46.57;;;;;;;7.86;100.00;101200.50;5023380;28;20544;-51
2023/01/07 06:18:47;;;;;;;53.17;46.30;;;;;;;7.88;100.00;101207.31;5022998;28;20456;-47
2023/01/07 06:21:17;;;;;;;50.30;44.97;;;;;;;7.91;100.00;101209.63;5023283;28;20477;-49
2023/01/07 06:23:44;;;;;;;58.23;47.10;;;;;;;7.95;100.00;101210.94;5022940;28;20429;-50
2023/01/07 06:26:12;;;;;;;52.73;43.60;;;;;;;7.99;100.00;101206.13;5021962;28;20526;-50
2023/01/07 06:28:41;;;;;;;52.13;44.30;;;;;;;8.01;100.00;101210.28;5023009;28;20815;-50
2023/01/07 06:31:09;;;;;;;48.07;42.87;;;;;;;8.05;100.00;101211.59;5023066;28;20429;-45
2023/01/07 06:33:39;;;;;;;47.43;42.43;;;;;;;8.09;100.00;101212.09;5023007;28;20516;-46
2023/01/07 06:36:08;;;;;;;47.40;42.30;;;;;;;8.12;100.00;101204.59;5021950;28;20463;-44
2023/01/07 06:38:35;;;;;;;48.57;41.73;;;;;;;8.16;100.00;101202.44;5022768;28;20445;-48
2023/01/07 06:41:03;;;;;;;44.83;40.03;;;;;;;8.20;100.00;101204.59;5022222;28;20939;-45
2023/01/07 06:43:31;;;;;;;42.60;38.50;;;;;;;8.25;100.00;101202.25;5022296;28;20436;-44
2023/01/07 06:46:00;;;;;;;44.57;40.23;;;;;;;8.29;100.00;101213.41;5022976;28;20500;-47
2023/01/07 06:48:28;;;;;;;46.33;41.57;;;;;;;8.31;100.00;101204.25;5022729;28;20445;-46
2023/01/07 06:50:55;;;;;;;45.97;41.13;;;;;;;8.36;100.00;101205.59;5022631;28;20425;-45
2023/01/07 06:53:23;;;;;;;46.20;41.43;;;;;;;8.39;100.00;101203.41;5022973;28;20437;-47
2023/01/07 06:55:51;;;;;;;49.30;41.60;;;;;;;8.42;100.00;101203.09;5022044;28;20465;-45
2023/01/07 06:58:19;;;;;;;45.67;41.03;;;;;;;8.45;100.00;101199.25;5021970;28;21204;-45
2023/01/07 07:00:46;;;;;;;45.47;40.87;;;;;;;8.48;100.00;101210.38;5023181;28;20437;-46
2023/01/07 07:03:15;;;;;;;49.30;43.47;;;;;;;8.51;100.00;101201.22;5022126;28;20816;-46
2023/01/07 07:05:43;;;;;;;48.00;42.83;;;;;;;8.53;100.00;101202.69;5022124;28;20467;-45
2023/01/07 07:08:11;;;;;;;53.23;45.13;;;;;;;8.55;100.00;101206.00;5022033;28;20448;-47
2023/01/07 07:10:39;;;;;;;48.90;43.10;;;;;;;8.56;100.00;101204.19;5021784;28;20486;-45
2023/01/07 07:13:07;;;;;;;48.87;43.93;;;;;;;8.59;100.00;101201.19;5025957;28;20433;-46
2023/01/07 07:15:34;;;;;;;48.53;43.20;;;;;;;8.62;100.00;101208.81;5025853;28;21143;-50
2023/01/07 07:18:02;;;;;;;48.03;43.03;;;;;;;8.64;100.00;101202.31;5025821;28;20433;-50
2023/01/07 07:20:31;;;;;;;51.60;44.10;;;;;;;8.67;100.00;101211.78;5025132;28;20986;-47
2023/01/07 07:22:59;;;;;;;48.10;42.90;;;;;;;8.68;100.00;101208.94;5025633;28;20563;-48
2023/01/07 07:25:26;;;;;;;54.03;44.67;;;;;;;8.71;100.00;101207.78;5025113;28;20459;-52
2023/01/07 07:27:54;;;;;;;50.53;44.87;;;;;;;8.73;100.00;101205.75;5025676;28;20429;-44
2023/01/07 07:30:22;;;;;;;50.10;44.60;;;;;;;8.76;100.00;101198.28;5025522;28;20484;-45
2023/01/07 07:33:11;;;;;;;48.90;43.57;;;;;;;8.80;100.00;101210.22;5024475;28;20433;-52
2023/01/07 07:35:40;;;;;;;53.60;44.90;;;;;;;8.84;100.00;101213.38;5025403;28;20527;-50
2023/01/07 07:38:08;;;;;;;49.50;44.33;;;;;;;8.87;100.00;101205.00;5011881;28;20908;-44
2023/01/07 07:40:36;;;;;;;50.57;44.90;;;;;;;8.91;100.00;101209.00;5006009;28;20525;-46
2023/01/07 07:43:03;;;;;;;57.87;46.80;;;;;;;8.93;100.00;101211.50;5006086;28;20477;-45
2023/01/07 07:45:39;;;;;;;52.10;44.80;;;;;;;8.98;100.00;101214.44;5005302;28;20525;-47
2023/01/07 07:48:07;;;;;;;50.30;45.50;;;;;;;9.00;100.00;101209.78;5005333;28;20500;-46
2023/01/07 07:50:35;;;;;;;53.70;47.90;;;;;;;9.04;100.00;101216.41;5006070;28;20465;-46
2023/01/07 07:53:08;;;;;;;52.10;46.47;;;;;;;9.06;100.00;101212.56;5005430;28;20446;-46
2023/01/07 07:55:37;;;;;;;53.43;47.80;;;;;;;9.09;100.00;101211.38;5005036;28;20466;-45
2023/01/07 07:58:05;;;;;;;54.50;48.73;;;;;;;9.13;100.00;101215.38;5006067;28;20434;-46
2023/01/07 08:00:33;;;;;;;55.43;49.53;;;;;;;9.14;100.00;101209.06;5005658;28;20513;-45
2023/01/07 08:03:01;;;;;;;53.73;48.10;;;;;;;9.19;100.00;101206.69;5005346;28;20482;-48
2023/01/07 08:05:29;;;;;;;52.87;47.53;;;;;;;9.19;100.00;101207.50;5005408;28;20473;-45
2023/01/07 08:07:58;;;;;;;54.87;48.30;;;;;;;9.24;100.00;101199.81;5005887;28;20442;-44
2023/01/07 08:10:28;;;;;;;55.93;50.00;;;;;;;9.26;100.00;101205.78;5005237;28;20461;-47
2023/01/07 08:12:56;;;;;;;54.60;48.97;;;;;;;9.28;100.00;101208.28;5005453;28;20469;-45
2023/01/07 08:15:24;;;;;;;55.53;49.53;;;;;;;9.31;100.00;101211.44;5004494;28;20536;-50
2023/01/07 08:17:59;;;;;;;55.53;47.87;;;;;;;9.33;100.00;101203.25;5005344;28;20440;-48
2023/01/07 08:20:27;;;;;;;55.77;50.13;;;;;;;9.36;100.00;101203.72;5005435;28;20461;-46
2023/01/07 08:22:55;;;;;;;57.13;51.13;;;;;;;9.38;100.00;101204.38;5006891;28;20479;-50
2023/01/07 08:25:22;;;;;;;54.47;49.03;;;;;;;9.40;100.00;101199.72;5006005;28;20465;-47
2023/01/07 08:27:51;;;;;;;54.63;49.03;;;;;;;9.43;100.00;101199.38;5005895;28;20522;-48
2023/01/07 08:30:19;;;;;;;56.33;50.83;;;;;;;9.44;100.00;101202.81;5005989;28;20450;-47
2023/01/07 08:32:46;;;;;;;55.63;49.77;;;;;;;9.48;100.00;101195.31;5006047;28;20807;-49
2023/01/07 08:35:15;;;;;;;55.77;50.07;;;;;;;9.49;100.00;101194.31;5005362;28;20469;-46
2023/01/07 08:37:44;;;;;;;53.67;48.23;;;;;;;9.51;100.00;101200.28;5012923;28;20501;-48
2023/01/07 08:40:13;;;;;;;53.30;47.60;;;;;;;9.52;100.00;101193.97;5014397;28;20500;-53
2023/01/07 08:42:41;;;;;;;53.07;47.83;;;;;;;9.56;100.00;101195.28;5006120;28;21005;-52
2023/01/07 08:45:11;;;;;;;52.37;47.47;;;;;;;9.59;100.00;101198.38;5005083;28;20469;-46
2023/01/07 08:47:39;;;;;;;53.37;48.00;;;;;;;9.63;100.00;101193.53;5005194;28;20597;-45
2023/01/07 08:50:07;;;;;;;55.40;49.60;;;;;;;9.67;100.00;101192.19;5004761;28;20540;-44
2023/01/07 08:52:35;;;;;;;52.77;47.93;;;;;;;9.70;100.00;101197.97;5004889;28;20438;-48
2023/01/07 08:55:03;;;;;;;53.87;48.50;;;;;;;9.73;100.00;101188.78;5004623;28;20462;-48
2023/01/07 08:57:30;;;;;;;53.07;47.97;;;;;;;9.79;100.00;101188.09;5003108;28;20441;-47
2023/01/07 08:59:58;;;;;;;53.47;48.37;;;;;;;9.85;100.00;101192.69;5020103;28;20543;-47
2023/01/07 09:02:27;;;;;;;54.43;49.00;;;;;;;9.89;100.00;101188.63;5025513;28;20796;-47
2023/01/07 09:04:55;;;;;;;55.10;50.20;;;;;;;9.93;100.00;101185.44;5023834;28;20475;-48
2023/01/07 09:07:22;;;;;;;53.83;48.83;;;;;;;9.95;100.00;101183.41;5024618;28;20493;-49
2023/01/07 09:09:50;;;;;;;55.70;50.50;;;;;;;9.95;100.00;101177.25;5024683;28;20460;-50
2023/01/07 09:12:17;;;;;;;52.67;48.07;;;;;;;9.94;100.00;101187.09;5024929;28;20437;-50
2023/01/07 09:14:45;;;;;;;50.27;45.83;;;;;;;9.96;100.00;101179.75;5024365;28;20461;-46
2023/01/07 09:17:13;;;;;;;51.87;47.33;;;;;;;9.96;100.00;101174.41;5024349;28;20429;-46
2023/01/07 09:19:42;;;;;;;51.60;47.10;;;;;;;10.00;100.00;101173.03;5024082;28;20460;-50
2023/01/07 09:22:09;;;;;;;51.67;47.27;;;;;;;10.04;100.00;101176.16;5023323;28;20429;-52
2023/01/07 09:24:37;;;;;;;53.83;49.30;;;;;;;10.06;100.00;101184.81;5023214;28;20465;-45
2023/01/07 09:27:05;;;;;;;52.67;48.07;;;;;;;10.05;100.00;101177.00;5024213;28;20429;-47
2023/01/07 09:29:32;;;;;;;52.30;48.00;;;;;;;10.05;100.00;101171.66;5018360;28;20541;-51
2023/01/07 09:32:00;;;;;;;53.17;48.80;;;;;;;10.05;100.00;101172.50;5004525;28;20425;-51
2023/01/07 09:34:28;;;;;;;54.17;49.37;;;;;;;10.06;100.00;101178.66;5003478;28;20497;-48
2023/01/07 09:36:57;;;;;;;52.87;48.50;;;;;;;10.05;100.00;101177.81;5004771;28;20529;-48
2023/01/07 09:39:24;;;;;;;57.20;52.50;;;;;;;10.05;100.00;101182.31;5005035;28;20454;-52
2023/01/07 09:41:58;;;;;;;54.70;50.10;;;;;;;10.07;100.00;101175.78;5004315;28;20422;-48
2023/01/07 09:44:43;;;;;;;56.57;51.67;;;;;;;10.11;100.00;101177.09;5004160;28;20469;-46
2023/01/07 09:47:13;;;;;;;56.77;52.20;;;;;;;10.14;100.00;101176.75;5004397;28;20934;-51
2023/01/07 09:49:41;;;;;;;57.50;52.93;;;;;;;10.18;100.00;101162.06;5004529;28;20466;-49
2023/01/07 09:52:16;;;;;;;58.00;53.40;;;;;;;10.24;100.00;101168.50;5003852;28;20531;-49
2023/01/07 09:54:45;;;;;;;58.93;54.33;;;;;;;10.27;100.00;101166.28;5003446;28;20468;-54
2023/01/07 09:57:17;;;;;;;58.87;54.30;;;;;;;10.32;100.00;101166.56;5003151;28;20445;-52
2023/01/07 09:59:45;;;;;;;59.17;54.73;;;;;;;10.37;100.00;101163.31;5019532;28;20460;-50
2023/01/07 10:02:27;;;;;;;62.57;57.27;;;;;;;10.44;100.00;101167.75;5023741;28;20429;-48
2023/01/07 10:05:01;;;;;;;58.77;53.87;;;;;;;10.43;100.00;101159.94;5005656;28;20466;-47
2023/01/07 10:07:38;;;;;;;61.53;56.77;;;;;;;10.42;100.00;101155.63;5003892;28;20436;-46
2023/01/07 10:10:16;;;;;;;62.60;57.50;;;;;;;10.41;100.00;101156.63;5004337;28;20477;-48
2023/01/07 10:12:51;;;;;;;56.30;52.30;;;;;;;10.38;100.00;101147.16;5003641;28;20430;-45
2023/01/07 10:15:30;;;;;;;58.40;54.00;;;;;;;10.37;100.00;101150.84;5003501;28;20549;-46
2023/01/07 10:18:15;;;;;;;58.57;54.07;;;;;;;10.34;100.00;101137.88;5003328;28;20437;-49
2023/01/07 10:20:51;;;;;;;56.83;52.93;;;;;;;10.33;100.00;101141.56;5004391;28;20434;-51
2023/01/07 10:23:24;;;;;;;58.57;53.87;;;;;;;10.32;100.00;101131.91;5003831;28;20484;-47
2023/01/07 10:25:55;;;;;;;59.33;54.97;;;;;;;10.30;100.00;101136.59;5003407;28;20462;-50
2023/01/07 10:28:28;;;;;;;59.23;54.63;;;;;;;10.30;100.00;101135.78;5003964;28;20511;-51
2023/01/07 10:30:58;;;;;;;57.53;53.33;;;;;;;10.31;100.00;101140.06;5004027;28;20828;-53
2023/01/07 10:33:28;;;;;;;55.97;51.70;;;;;;;10.28;100.00;101133.28;5003925;28;20434;-51
2023/01/07 10:36:05;;;;;;;55.37;51.50;;;;;;;10.28;100.00;101133.28;5002818;28;20466;-51
2023/01/07 10:38:37;;;;;;;56.40;51.83;;;;;;;10.27;100.00;101128.97;5019846;28;20464;-49
2023/01/07 10:41:12;;;;;;;56.07;52.10;;;;;;;10.30;100.00;101139.28;5004328;28;20505;-52
2023/01/07 10:43:55;;;;;;;62.30;57.90;;;;;;;10.33;100.00;101132.75;4997323;28;20482;-50
2023/01/07 10:46:35;;;;;;;66.47;61.97;;;;;;;10.34;100.00;101132.53;5011093;28;20476;-49
2023/01/07 10:49:31;;;;;;;63.60;58.67;;;;;;;10.33;100.00;101124.75;5017529;28;20464;-50
2023/01/07 10:52:27;;;;;;;60.77;56.27;;;;;;;10.30;100.00;101119.78;5003515;28;20446;-48
2023/01/07 10:55:17;;;;;;;58.27;54.17;;;;;;;10.30;100.00;101119.78;5016723;28;20462;-49
2023/01/07 10:57:47;;;;;;;59.27;55.17;;;;;;;10.32;100.00;101117.75;5003732;28;20418;-46
2023/01/07 11:00:17;;;;;;;58.27;54.27;;;;;;;10.33;100.00;101114.91;5008043;28;20465;-46
2023/01/07 11:02:53;;;;;;;61.37;57.03;;;;;;;10.31;100.00;101114.25;5003179;28;20504;-46
2023/01/07 11:05:22;;;;;;;58.13;54.13;;;;;;;10.30;100.00;101122.44;5010996;28;20466;-48
2023/01/07 11:07:53;;;;;;;61.10;56.73;;;;;;;10.29;100.00;101115.44;5012429;28;20438;-51
2023/01/07 11:10:25;;;;;;;57.60;53.50;;;;;;;10.30;100.00;101112.63;5015068;28;20460;-48
2023/01/07 11:12:56;;;;;;;58.57;54.03;;;;;;;10.28;100.00;101111.97;5015546;28;20502;-47
2023/01/07 11:15:29;;;;;;;56.30;52.30;;;;;;;10.29;100.00;101105.63;5010897;28;21089;-45
2023/01/07 11:18:02;;;;;;;53.83;49.97;;;;;;;10.31;100.00;101103.59;5000515;28;20429;-50
2023/01/07 11:20:44;;;;;;;54.17;50.27;;;;;;;10.32;100.00;101101.75;5005410;28;20534;-47
2023/01/07 11:23:33;;;;;;;55.83;51.83;;;;;;;10.34;100.00;101092.56;5018489;28;20827;-44